Latest Coastal Weather Observations for Coolangatta

IDQ60701

Issued at 6:42 am EST Sunday 5 July 2015 (issued every 10 minutes, with the page automatically refreshed every 10 minutes)

About coastal observations | Map of coastal stations | Coastal observations for QLD | Marine services | Other Formats
Station Details ID: 040717 Name: COOLANGATTA Lat: -28.17 Lon: 153.51 Height: 4.0 m
Data from the previous 72 hours. | See also: Recent months at Coolangatta
Date/Time
EST
Temp

°C
Wind Pressure Rain
since 9am
mm
Weather Cloud Vis
km
Sea
Height
m
Swell
Dir
 
Speed
knots
Gust
knots
hPa Trend Height
m
Period
s
Dir
05/06:30am 9.7 SW 3 5 1021.6 - 0.0 - - 10 - - - -
05/06:00am 9.8 WSW 3 4 1021.3 - 0.0 - - 10 - - - -
05/05:38am 9.8 WSW 5 5 1021.2 - 0.0 - - 10 - - - -
05/05:30am 9.6 WSW 4 6 1021.0 - 0.0 - - 9 - - - -
05/05:00am 9.0 SW 1 4 1020.8 - 0.0 - - 4 - - - -
05/04:45am 8.2 SSE 3 4 1020.6 - 0.0 - - 5 - - - -
05/04:30am 9.3 SE 4 5 1020.6 - 0.0 - - 10 - - - -
05/04:06am 10.2 N 2 4 1020.7 - 0.0 - - 10 - - - -
05/04:00am 8.9 SW 1 4 1020.7 - 0.0 - - 10 - - - -
05/03:30am 9.3 CALM 0 0 1020.7 - 0.0 - - 1 - - - -
05/03:09am 10.0 S 3 4 1020.8 - 0.0 - Partly cloudy 6 - - - -
05/03:07am 10.3 S 3 4 1020.8 - 0.0 - Partly cloudy 10 - - - -
05/03:00am 10.1 S 4 6 1020.9 - 0.0 - Mostly clear 10 - - - -
05/02:37am 9.6 SSE 3 4 1021.0 - 0.0 - - 4 - - - -
05/02:00am 10.9 SW 4 6 1021.3 - 0.0 - - 10 - - - -
05/01:30am 11.3 SW 3 4 1021.6 - 0.0 - - 10 - - - -
05/01:00am 11.3 SW 4 5 1021.9 - 0.0 - - 10 - - - -
05/12:30am 11.8 WSW 6 7 1021.9 - 0.0 - - 10 - - - -
 
Date/Time
EST
Temp

°C
Wind Pressure Rain
since 9am
mm
Weather Cloud Vis
km
Sea
Height
m
Swell
Dir
 
Speed
knots
Gust
knots
hPa Trend Height
m
Period
s
Dir
04/11:30pm 11.7 SW 1 4 1022.0 - 0.0 - - 10 - - - -
04/11:00pm 11.9 SW 2 4 1022.1 - 0.0 - - 10 - - - -
04/10:30pm 11.8 SW 2 4 1022.0 - 0.0 - - 10 - - - -
04/10:00pm 11.9 SW 4 5 1021.9 - 0.0 - - 10 - - - -
04/09:30pm 12.2 WSW 5 7 1021.9 - 0.0 - - 10 - - - -
04/09:00pm 12.2 WSW 6 7 1022.0 - 0.0 - - 10 - - - -
04/08:30pm 12.4 WSW 5 7 1021.9 - 0.0 - - 10 - - - -
04/08:00pm 12.5 SW 2 3 1021.7 - 0.0 - - 10 - - - -
04/07:30pm 13.0 WSW 7 8 1021.5 - 0.0 - - 10 - - - -
04/07:00pm 13.5 WSW 8 9 1021.2 - 0.0 - - 10 - - - -
04/06:30pm 13.6 SW 5 7 1021.0 - 0.0 - - 10 - - - -
04/06:00pm 13.9 WSW 5 6 1020.8 - 0.0 - - 10 - - - -
04/05:30pm 14.3 SW 3 4 1020.7 - 0.0 - - 10 - - - -
04/05:00pm 16.4 SE 5 6 1020.3 - 0.0 - - 10 - - - -
04/04:30pm 18.1 ESE 7 8 1020.4 - 0.0 - - 10 - - - -
04/04:00pm 18.5 ESE 7 9 1020.4 - 0.0 - - 10 - - - -
04/03:30pm 19.6 ESE 9 11 1020.5 - 0.0 - Partly cloudy 10 - - - -
04/03:00pm 19.9 ESE 9 12 1020.4 - 0.0 - - 10 - - - -
04/02:30pm 20.0 ESE 9 11 1020.4 - 0.0 - Partly cloudy 10 - - - -
04/02:00pm 20.3 ESE 11 13 1020.5 - 0.0 - Partly cloudy 10 - - - -
04/01:30pm 20.8 SSW 5 9 1020.7 - 0.0 - - 10 - - - -
04/01:00pm 20.0 SSE 6 9 1021.1 - 0.0 - - 10 - - - -
04/12:30pm 20.2 SSW 7 11 1021.4 - 0.0 - - 10 - - - -
04/12:00pm 19.6 S 9 12 1022.0 - 0.0 - - 10 - - - -
04/11:30am 19.8 S 9 13 1022.6 - 0.0 - Partly cloudy 10 - - - -
04/11:00am 19.1 SSW 7 9 1022.9 - 0.0 - Partly cloudy 10 - - - -
04/10:30am 18.6 S 9 15 1023.4 - 0.0 - - 10 - - - -
04/10:00am 18.2 SSW 9 15 1023.5 - 0.0 - - 10 - - - -
04/09:30am 17.5 SSW 10 15 1023.7 - 0.0 - Partly cloudy 10 - - - -
04/09:00am 15.8 SSW 7 9 1023.8 - 0.0 - Mostly clear 10 - - - -
04/08:30am 15.3 SW 5 7 1023.6 - 0.0 - Partly cloudy 10 - - - -
04/08:00am 14.5 SSW 6 9 1023.2 - 0.0 - - 10 - - - -
04/07:30am 12.8 S 6 7 1023.0 - 0.0 - - 10 - - - -
04/07:00am 13.0 SSW 6 10 1022.9 - 0.0 - - 10 - - - -
04/06:30am 12.8 SSW 7 11 1022.5 - 0.0 - - 10 - - - -
04/06:00am 12.9 SSW 7 11 1022.3 - 0.0 - - 10 - - - -
04/05:30am 13.2 SSW 7 10 1022.1 - 0.0 - - 10 - - - -
04/05:00am 13.7 SSW 11 17 1021.9 - 0.0 - - 10 - - - -
04/04:30am 14.2 SW 12 19 1021.8 - 0.0 - Partly cloudy 10 - - - -
04/04:00am 14.0 SW 11 18 1022.4 - 0.0 - Partly cloudy 10 - - - -
04/03:30am 14.3 SSW 11 15 1022.5 - 0.0 - Partly cloudy 10 - - - -
04/03:00am 14.0 SW 8 11 1022.3 - 0.0 - Mostly cloudy 10 - - - -
04/02:30am 13.8 SW 7 10 1022.3 - 0.0 - Partly cloudy 10 - - - -
04/02:00am 14.0 SSW 10 16 1022.5 - 0.0 - Partly cloudy 10 - - - -
04/01:30am 14.3 SW 7 10 1022.5 - 0.0 - Partly cloudy 10 - - - -
04/01:00am 14.8 SSW 9 13 1022.3 - 0.0 - Partly cloudy 10 - - - -
04/12:30am 14.6 SSW 9 13 1022.5 - 0.0 - Partly cloudy 10 - - - -
04/12:00am 14.1 SSW 6 8 1022.7 - 0.0 - Cloudy 10 - - - -
 
Date/Time
EST
Temp

°C
Wind Pressure Rain
since 9am
mm
Weather Cloud Vis
km
Sea
Height
m
Swell
Dir
 
Speed
knots
Gust
knots
hPa Trend Height
m
Period
s
Dir
03/11:30pm 14.8 SSW 4 6 1023.0 - 0.0 - Partly cloudy 10 - - - -
03/11:00pm 14.6 SSW 3 5 1023.3 - 0.0 - Partly cloudy 10 - - - -
03/10:30pm 14.7 SSW 5 8 1023.4 - 0.0 - Partly cloudy 10 - - - -
03/10:00pm 14.7 SSW 9 12 1023.4 - 0.0 - Partly cloudy 10 - - - -
03/09:30pm 14.6 SSW 11 16 1023.3 - 0.0 - - 10 - - - -
03/09:00pm 14.5 SSW 9 13 1023.0 - 0.0 - Partly cloudy 10 - - - -
03/08:30pm 14.9 SSW 9 13 1023.1 - 0.0 - Partly cloudy 10 - - - -
03/08:00pm 14.8 SSW 9 14 1022.8 - 0.0 - - 10 - - - -
03/07:30pm 14.5 SSW 8 12 1022.8 - 0.0 - Partly cloudy 10 - - - -
03/07:00pm 14.6 SSW 6 8 1022.7 - 0.0 - Partly cloudy 10 - - - -
03/06:30pm 15.1 SSW 6 9 1022.5 - 0.0 - Partly cloudy 10 - - - -
03/06:00pm 15.1 SW 5 7 1022.3 - 0.0 - Cloudy 10 - - - -
03/05:30pm 15.1 SSW 7 9 1021.9 - 0.0 - - 10 - - - -
03/05:00pm 15.8 SSW 8 11 1021.7 - 0.0 - - 10 - - - -
03/04:30pm 16.7 SSW 9 14 1021.5 - 0.0 - Partly cloudy 10 - - - -
03/04:00pm 17.4 S 11 17 1021.3 - 0.0 - Partly cloudy 10 - - - -
03/03:30pm 17.8 SSW 9 16 1021.1 - 0.0 - - 10 - - - -
03/03:00pm 18.1 S 13 20 1020.9 - 0.0 - - 10 - - - -
03/02:30pm 18.2 SSW 11 17 1020.8 - 0.0 - Partly cloudy 10 - - - -
03/02:00pm 19.2 S 10 14 1020.8 - 0.0 - Partly cloudy 10 - - - -
03/01:30pm 17.7 SSW 10 14 1020.9 - 0.0 - Partly cloudy 10 - - - -
03/01:00pm 17.9 SSW 10 17 1021.1 - 0.0 - Partly cloudy 10 - - - -
03/12:30pm 17.3 SSW 12 17 1021.3 - 0.0 - Cloudy 10 - - - -
03/12:00pm 17.7 SSW 12 18 1021.7 - 0.0 - Mostly clear 10 - - - -
03/11:30am 17.2 SSW 13 18 1022.0 - 0.0 - - 10 - - - -
03/11:00am 16.9 SW 10 15 1022.3 - 0.0 - - 10 - - - -
03/10:30am 16.3 SW 12 19 1022.4 - 0.0 - - 10 - - - -
03/10:00am 15.8 SSW 11 16 1022.8 - 0.0 - - 10 - - - -
03/09:30am 15.4 SW 9 16 1022.6 - 0.0 - - 10 - - - -
03/09:00am 14.6 SSW 9 16 1022.7 - 0.0 - - 10 - - - -
03/08:30am 13.9 SSW 10 16 1022.6 - 0.0 - - 10 - - - -
03/08:00am 13.3 SSW 9 19 1022.1 - 0.0 - - 10 - - - -
03/07:30am 12.7 SW 9 14 1021.9 - 0.0 - - 10 - - - -
03/07:00am 12.1 SW 9 12 1021.8 - 0.0 - - 10 - - - -
03/06:30am 11.8 SSW 10 15 1021.3 - 0.0 - - 10 - - - -
03/06:00am 11.8 SSW 8 13 1020.8 - 0.0 - - 10 - - - -
03/05:30am 12.0 SSW 10 16 1020.6 - 0.0 - - 10 - - - -
03/05:00am 11.7 SW 9 12 1020.3 - 0.0 - - 10 - - - -
03/04:30am 12.1 SSW 11 15 1020.0 - 0.0 - - 10 - - - -
03/04:00am 12.7 SSW 14 21 1019.5 - 0.0 - - 10 - - - -
03/03:30am 12.5 SSW 13 19 1019.5 - 0.0 - - 10 - - - -
03/03:00am 12.5 SSW 14 23 1019.3 - 0.0 - - 10 - - - -
03/02:30am 12.6 SSW 15 23 1019.3 - 0.0 - - 10 - - - -
03/02:00am 12.6 SSW 13 17 1019.7 - 0.0 - - 10 - - - -
03/01:30am 13.0 SSW 13 18 1019.6 - 0.0 - - 10 - - - -
03/01:00am 13.3 SSW 12 19 1019.4 - 0.0 - - 10 - - - -
03/12:30am 13.3 SW 11 17 1019.2 - 0.0 - - 10 - - - -
03/12:00am 13.4 SSW 12 15 1019.2 - 0.0 - - 10 - - - -
 
Date/Time
EST
Temp

°C
Wind Pressure Rain
since 9am
mm
Weather Cloud Vis
km
Sea
Height
m
Swell
Dir
 
Speed
knots
Gust
knots
hPa Trend Height
m
Period
s
Dir
02/11:30pm 13.5 SSW 12 17 1019.1 - 0.0 - - 10 - - - -
02/11:00pm 13.4 SSW 12 17 1018.9 - 0.0 - - 10 - - - -
02/10:30pm 13.2 SSW 9 13 1019.2 - 0.0 - - 10 - - - -
02/10:00pm 13.9 SW 11 14 1018.9 - 0.0 - - 10 - - - -
02/09:30pm 11.1 SW 6 9 1018.6 - 0.0 - - 10 - - - -
02/09:00pm 10.8 CALM 0 0 1018.2 - 0.0 - - 10 - - - -
02/08:30pm 11.2 SW 4 5 1018.4 - 0.0 - - 10 - - - -
02/08:00pm 11.0 SW 5 8 1018.2 - 0.0 - - 10 - - - -
02/07:30pm 11.5 WSW 7 8 1017.7 - 0.0 - - 10 - - - -
02/07:00pm 12.1 WSW 4 5 1017.5 - 0.0 - - 10 - - - -
02/06:30pm 12.4 SW 4 6 1017.7 - 0.0 - - 10 - - - -
02/06:00pm 14.2 S 2 4 1017.3 - 0.0 - - 10 - - - -
02/05:30pm 14.8 WNW 5 6 1017.2 - 0.0 - - 10 - - - -
02/05:00pm 16.5 WNW 5 6 1017.2 - 0.0 - - 10 - - - -
02/04:30pm 18.5 NW 6 8 1016.8 - 0.0 - - 10 - - - -
02/04:00pm 19.3 WNW 5 6 1016.7 - 0.0 - - 10 - - - -
02/03:30pm 20.3 WNW 6 8 1016.7 - 0.0 - - 10 - - - -
02/03:00pm 21.2 WNW 8 13 1016.6 - 0.0 - Mostly clear 10 - - - -
02/02:30pm 21.4 NW 8 10 1016.7 - 0.0 - - 10 - - - -
02/02:00pm 20.8 NW 9 11 1016.7 - 0.0 - - 10 - - - -
02/01:30pm 21.5 NW 10 14 1016.9 - 0.0 - - 10 - - - -
02/01:00pm 21.2 NW 8 11 1017.3 - 0.0 - - 10 - - - -
02/12:30pm 21.7 NW 8 11 1017.6 - 0.0 - - 10 - - - -
02/12:00pm 20.5 NNE 8 11 1018.4 - 0.0 - - 10 - - - -
02/11:30am 20.1 N 9 12 1019.2 - 0.0 - - 10 - - - -
02/11:00am 19.5 N 9 11 1019.9 - 0.0 - - 10 - - - -
02/10:30am 19.4 N 7 9 1020.4 - 0.0 - - 10 - - - -
02/10:00am 18.7 NNE 5 7 1020.8 - 0.0 - - 10 - - - -
02/09:30am 18.4 NW 1 5 1021.3 - 0.0 - - 10 - - - -
02/09:00am 16.6 SSE 3 4 1020.9 - 0.2 - - 10 - - - -
02/08:30am 14.5 SW 4 4 1021.0 - 0.2 - - 10 - - - -
02/08:00am 13.1 WSW 3 4 1020.8 - 0.2 - - 10 - - - -
02/07:30am 12.0 CALM 0 0 1020.6 - 0.2 - - 10 - - - -
02/07:10am 10.4 CALM 0 0 1020.5 - 0.2 - - 10 - - - -
02/07:00am 9.8 CALM 0 0 1020.5 - 0.2 - - 6 - - - -
02/06:52am 9.3 CALM 0 0 1020.5 - 0.2 - - 6 - - - -

Other Formats:

Comma delimited format used in spreadsheet applications
http://www.bom.gov.au/fwo/IDQ60701/IDQ60701.94592.axf

JavaScript Object Notation format (JSON) in row-major order
http://www.bom.gov.au/fwo/IDQ60701/IDQ60701.94592.json